Cincinnati, OH

9:40 AM EST on January 29, 2015 (GMT -0500)
Butler County Regional | Change Station
CLOSE
Current Station
Airport
Location: Hamilton,
Elevation: 633 ft
Nearby Weather Stations

Elev 633 ft 39.36 °N, 84.52 °W | Updated 47 minutes ago

Overcast
Overcast
36 °F
Feels Like 32 °F
N
5
Wind Variable Wind from ESE

Today
High -- | Low -- °F
--% Chance of Precip.
Yesterday
High -- | Low -- °F
Precip. -- in
7:47 AM 5:55 PM
Waxing Gibbous, 74% visible
Pressure 29.90 in
Visibility 10.0 miles
Clouds Mostly Cloudy 8000 ft
Overcast 9500 ft
Windchill 32 °F
Dew Point 32 °F
Humidity 86%
Rainfall 0.10 in
Snow Depth Not available.
UV 0 out of 12
Pollen .10 out of 12
Air Quality Not available.
Flu Activity Not available.
METAR KHAO 291353Z AUTO 11004KT 10SM BKN080 OVC095 02/00 A2988 RMK AO2 RAB05E23UPB20E22 SLP123 P0001 T00220000

More Conditions Fewer Conditions

Pressure 29.90 in
Visibility 10.0 miles
Clouds Mostly Cloudy 8000 ft
Overcast 9500 ft
Windchill 32 °F
Dew Point 32 °F
Humidity 86%
Rainfall 0.10 in
Snow Depth Not available.
UV 0 out of 12
Pollen .10 out of 12
Air Quality Not available.
Flu Activity Not available.
METAR KHAO 291353Z AUTO 11004KT 10SM BKN080 OVC095 02/00 A2988 RMK AO2 RAB05E23UPB20E22 SLP123 P0001 T00220000

More Conditions Fewer Conditions

10-Day Weather Forecast

Almanac

Astronomy

Jan. 29, 2015 Rise Set
Actual Time
Civil Twilight
Nautical Twilight
Astronomical Twilight
Moon
Length of Visible Light
Length of Day
Tomorrow will be .
, % of the Moon is Illuminated

Today's Extremes

State Highs State Lows

Community

WunderPhotos

Upload Photos

1,791,436 photos uploaded!

WunderBlogs® & News

Nearby

Air Quality

  Air Quality AQ Index Pollutant
Not available.

Snow Depth

Station Depth Elevation

Earthquake Activity

City Distance Mag. Time & Date
Minimum magnitude displayed is 2.5.

Coastal Water Temperatures

Place Temperature

Nearby Weather Stations